Time;durP1;ratioP1;P1;durP2;ratioP2;P2;SDS_P1;SDS_P2;PMS_P1;PMS_P2;Temp;Humidity;BMP_temperature;BMP_pressure;BME280_temperature;BME280_humidity;BME280_pressure;Samples;Min_cycle;Max_cycle;Signal;HPM_P1;HPM_P2
2021/10/02 00:01:40;;;;;;;1.80;1.00;;;24.00;50.60;;;;;;5055678;28;20384;-68
2021/10/02 00:44:44;;;;;;;1.55;0.70;;;23.90;50.80;;;;;;5064493;28;21002;-68
2021/10/02 00:47:13;;;;;;;1.20;0.70;;;24.00;50.50;;;;;;5063473;28;20756;-68
2021/10/02 00:49:41;;;;;;;1.30;0.80;;;23.90;50.60;;;;;;5063565;28;20387;-68
2021/10/02 00:52:09;;;;;;;1.88;0.77;;;23.90;50.60;;;;;;5063855;28;20391;-70
2021/10/02 00:54:35;;;;;;;1.40;0.70;;;23.90;50.60;;;;;;5063988;28;20392;-68
2021/10/02 00:57:02;;;;;;;1.20;0.60;;;23.90;50.60;;;;;;5063642;28;20387;-68
2021/10/02 00:59:30;;;;;;;1.27;0.70;;;23.90;50.50;;;;;;5063489;28;20392;-68
2021/10/02 01:02:15;;;;;;;1.92;0.70;;;23.90;50.40;;;;;;5063387;28;20392;-68
2021/10/02 01:04:51;;;;;;;1.33;0.70;;;23.90;50.50;;;;;;5063416;28;20446;-68
2021/10/02 01:07:24;;;;;;;1.20;0.60;;;23.90;50.30;;;;;;5063267;28;20475;-68
2021/10/02 01:10:37;;;;;;;1.10;0.70;;;23.90;50.50;;;;;;5062991;28;20783;-68
2021/10/02 01:13:13;;;;;;;1.40;0.60;;;23.90;50.40;;;;;;5052533;28;20427;-68
2021/10/02 01:16:04;;;;;;;2.65;0.60;;;23.80;50.40;;;;;;5062972;28;20380;-68
2021/10/02 01:18:36;;;;;;;1.50;0.60;;;23.80;50.30;;;;;;5061278;28;20764;-68
2021/10/02 01:21:14;;;;;;;1.23;0.68;;;23.80;50.30;;;;;;5063475;28;20441;-68
2021/10/02 01:23:57;;;;;;;1.98;0.75;;;23.80;50.20;;;;;;5062425;28;20898;-68
2021/10/02 01:26:34;;;;;;;1.15;0.70;;;23.80;50.20;;;;;;5062975;28;20395;-68
2021/10/02 01:29:08;;;;;;;1.30;0.70;;;23.80;50.20;;;;;;5063503;28;20394;-68
2021/10/02 01:31:40;;;;;;;1.20;0.77;;;23.80;50.30;;;;;;5058340;28;20411;-68
2021/10/02 01:35:04;;;;;;;1.48;0.75;;;23.80;50.10;;;;;;5062995;28;20417;-68
2021/10/02 01:37:36;;;;;;;1.10;0.60;;;23.80;50.30;;;;;;5059862;28;20411;-68
2021/10/02 01:48:19;;;;;;;0.90;0.60;;;23.70;50.00;;;;;;5062556;28;20989;-68
2021/10/02 01:50:51;;;;;;;1.02;0.60;;;23.70;50.00;;;;;;5061954;28;20402;-68
2021/10/02 01:53:18;;;;;;;0.90;0.60;;;23.70;50.00;;;;;;5062256;28;20419;-68
2021/10/02 01:55:46;;;;;;;1.25;0.63;;;23.70;50.00;;;;;;5062067;28;20383;-68
2021/10/02 01:58:16;;;;;;;1.25;0.70;;;23.70;50.10;;;;;;5062481;28;20417;-68
2021/10/02 02:00:47;;;;;;;0.98;0.60;;;23.70;50.10;;;;;;5062988;28;20384;-68
2021/10/02 02:03:17;;;;;;;1.02;0.55;;;23.60;49.90;;;;;;5062184;28;20864;-69
2021/10/02 02:05:44;;;;;;;1.50;0.90;;;23.60;50.10;;;;;;5061898;28;20423;-68
2021/10/02 02:08:14;;;;;;;1.20;0.77;;;23.60;50.00;;;;;;5062312;28;20410;-68
2021/10/02 02:10:42;;;;;;;0.90;0.60;;;23.60;50.00;;;;;;5095011;28;20382;-68
2021/10/02 02:13:09;;;;;;;0.87;0.60;;;23.60;50.10;;;;;;5057550;28;20419;-68
2021/10/02 02:15:36;;;;;;;1.50;0.60;;;23.50;49.90;;;;;;5062566;28;20409;-68
2021/10/02 02:18:05;;;;;;;1.10;0.63;;;23.60;49.90;;;;;;5062723;28;20464;-68
2021/10/02 02:20:43;;;;;;;1.27;0.70;;;23.60;50.00;;;;;;5062129;28;20479;-68
2021/10/02 02:23:11;;;;;;;0.75;0.52;;;23.60;49.90;;;;;;5061552;28;20400;-68
2021/10/02 02:25:37;;;;;;;1.42;0.50;;;23.60;49.80;;;;;;5045556;28;20403;-68
2021/10/02 02:28:06;;;;;;;1.80;0.70;;;23.60;49.90;;;;;;5062370;28;20391;-68
2021/10/02 02:30:32;;;;;;;1.65;0.70;;;23.60;49.90;;;;;;5054387;28;20414;-68
2021/10/02 02:32:59;;;;;;;1.30;0.60;;;23.60;50.00;;;;;;5062130;28;20464;-68
2021/10/02 02:35:25;;;;;;;1.50;0.70;;;23.50;50.00;;;;;;5062309;28;20403;-68
2021/10/02 02:37:52;;;;;;;1.38;0.60;;;23.50;50.00;;;;;;5061735;28;20375;-68
2021/10/02 02:40:18;;;;;;;0.90;0.65;;;23.50;49.80;;;;;;5061887;28;20449;-68
2021/10/02 02:42:44;;;;;;;1.13;0.60;;;23.50;49.90;;;;;;5061989;28;20391;-68
2021/10/02 02:45:12;;;;;;;1.35;0.60;;;23.50;49.80;;;;;;5062185;28;21005;-68
2021/10/02 02:47:47;;;;;;;1.50;0.70;;;23.50;49.90;;;;;;5061867;28;20392;-68
2021/10/02 02:50:23;;;;;;;1.05;0.70;;;23.50;49.90;;;;;;5043918;28;20387;-68
2021/10/02 02:52:58;;;;;;;1.00;0.70;;;23.50;50.00;;;;;;5062030;28;20432;-68
2021/10/02 02:55:33;;;;;;;1.07;0.60;;;23.50;49.80;;;;;;5062285;28;20467;-68
2021/10/02 02:58:05;;;;;;;1.35;0.70;;;23.50;49.90;;;;;;5094222;28;20419;-68
2021/10/02 03:00:31;;;;;;;1.23;0.60;;;23.40;50.00;;;;;;5062204;28;20400;-68
2021/10/02 03:03:02;;;;;;;0.88;0.63;;;23.40;49.90;;;;;;5062336;28;20490;-68
2021/10/02 03:05:29;;;;;;;1.10;0.65;;;23.40;50.10;;;;;;5051724;28;20972;-68
2021/10/02 03:08:24;;;;;;;1.05;0.60;;;23.40;50.20;;;;;;5065686;28;20391;-68
2021/10/02 03:10:59;;;;;;;8.10;0.88;;;23.40;49.80;;;;;;5056925;28;20400;-68
2021/10/02 03:13:26;;;;;;;3.88;1.00;;;23.40;49.90;;;;;;5065896;28;20430;-68
2021/10/02 03:15:53;;;;;;;3.08;1.08;;;23.40;50.50;;;;;;5065551;28;20462;-68
2021/10/02 03:18:19;;;;;;;4.18;1.20;;;23.40;51.20;;;;;;5065803;28;20426;-68
2021/10/02 03:20:50;;;;;;;3.88;0.85;;;23.40;51.80;;;;;;5064552;28;20395;-68
2021/10/02 03:23:18;;;;;;;3.30;1.00;;;23.50;52.40;;;;;;5065432;28;20474;-68
2021/10/02 03:25:47;;;;;;;4.43;0.88;;;23.50;52.20;;;;;;5062853;28;20399;-68
2021/10/02 03:28:14;;;;;;;3.70;1.00;;;23.50;52.00;;;;;;5064658;28;20394;-68
2021/10/02 03:30:41;;;;;;;3.03;0.80;;;23.60;52.20;;;;;;5064622;28;20391;-68
2021/10/02 03:33:08;;;;;;;2.42;0.80;;;23.60;52.10;;;;;;5064195;28;20407;-68
2021/10/02 03:35:33;;;;;;;3.00;0.77;;;23.60;52.10;;;;;;5064950;28;20434;-68
2021/10/02 03:37:59;;;;;;;4.78;1.00;;;23.60;52.10;;;;;;5064151;28;20422;-68
2021/10/02 03:40:25;;;;;;;2.67;0.88;;;23.60;51.50;;;;;;5064527;28;20525;-68
2021/10/02 03:42:56;;;;;;;2.35;0.93;;;23.60;52.30;;;;;;5063556;28;20391;-68
2021/10/02 03:45:25;;;;;;;3.20;0.73;;;23.60;52.10;;;;;;5063760;28;20399;-68
2021/10/02 03:47:51;;;;;;;3.60;0.80;;;23.60;52.20;;;;;;5064674;28;20380;-68
2021/10/02 03:50:17;;;;;;;2.77;1.00;;;23.60;52.10;;;;;;5065259;28;20797;-68
2021/10/02 03:52:43;;;;;;;2.22;1.00;;;23.60;51.60;;;;;;5065117;28;20458;-68
2021/10/02 03:55:12;;;;;;;2.40;0.95;;;23.50;51.40;;;;;;5051701;28;20879;-68
2021/10/02 03:57:38;;;;;;;2.85;0.82;;;23.50;51.20;;;;;;5064368;28;20392;-68
2021/10/02 04:00:06;;;;;;;4.03;1.00;;;23.40;51.00;;;;;;5064699;28;20406;-68
2021/10/02 04:02:32;;;;;;;2.08;0.90;;;23.40;50.70;;;;;;5057866;28;20387;-68
2021/10/02 04:04:57;;;;;;;1.50;0.70;;;23.40;50.50;;;;;;5064851;28;20384;-68
2021/10/02 04:07:23;;;;;;;2.60;0.80;;;23.40;50.50;;;;;;5064374;28;20392;-67
2021/10/02 04:09:49;;;;;;;2.05;0.90;;;23.40;50.40;;;;;;5063702;28;20403;-68
2021/10/02 04:12:14;;;;;;;1.90;0.90;;;23.40;50.10;;;;;;5063676;28;20816;-68
2021/10/02 04:14:40;;;;;;;2.50;0.82;;;23.30;50.30;;;;;;5063993;28;20906;-68
2021/10/02 04:17:06;;;;;;;2.60;0.87;;;23.30;50.20;;;;;;5064932;28;20740;-69
2021/10/02 04:19:32;;;;;;;1.20;0.70;;;23.30;50.10;;;;;;5064238;28;20927;-68
2021/10/02 04:21:57;;;;;;;1.60;0.80;;;23.30;50.30;;;;;;5064516;28;20814;-68
2021/10/02 04:24:24;;;;;;;1.60;0.75;;;23.30;50.40;;;;;;5064594;28;20406;-68
2021/10/02 04:26:50;;;;;;;2.57;1.00;;;23.30;50.10;;;;;;5064676;28;20742;-68
2021/10/02 04:29:16;;;;;;;1.35;0.70;;;23.30;50.10;;;;;;5064767;28;20392;-68
2021/10/02 04:31:41;;;;;;;2.47;1.10;;;23.30;50.10;;;;;;5054458;28;20395;-68
2021/10/02 04:34:07;;;;;;;3.30;0.80;;;23.30;50.20;;;;;;5064467;28;20494;-68
2021/10/02 04:36:33;;;;;;;1.77;0.90;;;23.30;50.20;;;;;;5064214;28;20602;-68
2021/10/02 04:39:00;;;;;;;3.25;0.70;;;23.20;50.20;;;;;;5064663;28;20470;-68
2021/10/02 04:41:25;;;;;;;2.40;0.80;;;23.20;49.90;;;;;;5063042;28;20384;-68
2021/10/02 04:43:51;;;;;;;1.53;0.77;;;23.20;50.00;;;;;;5064038;28;21495;-68
2021/10/02 04:46:19;;;;;;;2.30;0.77;;;23.20;50.00;;;;;;5062813;28;20397;-68
2021/10/02 04:48:46;;;;;;;1.67;0.85;;;23.20;49.90;;;;;;5053312;28;20960;-68
2021/10/02 04:51:12;;;;;;;1.70;0.80;;;23.20;49.90;;;;;;5064135;28;20864;-68
2021/10/02 04:53:38;;;;;;;1.60;0.65;;;23.20;49.80;;;;;;5063584;28;21516;-68
2021/10/02 04:56:07;;;;;;;2.10;0.65;;;23.20;49.80;;;;;;5050619;28;20419;-68
2021/10/02 04:58:33;;;;;;;1.73;0.80;;;23.20;49.80;;;;;;5064252;28;20867;-68
2021/10/02 05:00:59;;;;;;;1.70;0.70;;;23.20;50.10;;;;;;5064049;28;20543;-68
2021/10/02 05:03:25;;;;;;;1.20;0.70;;;23.20;49.90;;;;;;5063959;28;20670;-68
2021/10/02 05:05:51;;;;;;;3.23;0.97;;;23.20;50.00;;;;;;5063734;28;20862;-67
2021/10/02 05:08:17;;;;;;;1.95;0.80;;;23.20;50.60;;;;;;5063898;28;20407;-68
2021/10/02 05:10:43;;;;;;;2.78;1.00;;;23.20;50.30;;;;;;5063676;28;20372;-68
2021/10/02 05:13:09;;;;;;;2.93;1.00;;;23.20;51.40;;;;;;5063593;28;20830;-67
2021/10/02 05:15:34;;;;;;;2.40;1.00;;;23.20;51.50;;;;;;5063267;28;20426;-68
2021/10/02 05:18:00;;;;;;;2.50;1.20;;;23.20;51.60;;;;;;5063527;28;20399;-68
2021/10/02 05:20:28;;;;;;;1.63;0.60;;;23.20;51.60;;;;;;5063642;28;20963;-68
2021/10/02 05:22:55;;;;;;;2.35;0.77;;;23.20;51.60;;;;;;5063517;28;20384;-68
2021/10/02 05:25:20;;;;;;;2.10;0.90;;;23.20;51.60;;;;;;5063194;28;20421;-68
2021/10/02 05:27:46;;;;;;;1.80;0.80;;;23.20;51.50;;;;;;5062135;28;20383;-68
2021/10/02 05:30:12;;;;;;;2.47;0.70;;;23.20;51.60;;;;;;5047724;28;20415;-68
2021/10/02 05:32:37;;;;;;;2.10;0.70;;;23.20;51.60;;;;;;5063381;28;20461;-68
2021/10/02 05:35:03;;;;;;;1.40;0.70;;;23.20;51.60;;;;;;5063212;28;20755;-68
2021/10/02 05:37:29;;;;;;;2.97;0.65;;;23.20;51.50;;;;;;5062884;28;20396;-68
2021/10/02 05:39:55;;;;;;;1.73;0.73;;;23.20;51.60;;;;;;5062701;28;20411;-71
2021/10/02 05:42:20;;;;;;;2.47;0.70;;;23.20;51.50;;;;;;5058471;28;20399;-68
2021/10/02 05:44:46;;;;;;;9.13;1.30;;;23.20;51.70;;;;;;5063210;28;20384;-68
2021/10/02 05:47:12;;;;;;;4.47;0.77;;;23.20;51.20;;;;;;5062900;28;20383;-68
2021/10/02 05:49:37;;;;;;;4.05;0.90;;;23.20;51.20;;;;;;5062982;28;20474;-68
2021/10/02 05:52:04;;;;;;;14.83;1.60;;;23.20;50.20;;;;;;5062509;28;20395;-67
2021/10/02 05:54:30;;;;;;;6.32;1.10;;;23.20;50.70;;;;;;5062994;28;20426;-68
2021/10/02 05:56:55;;;;;;;5.40;1.05;;;23.10;51.20;;;;;;5062935;28;20384;-68
2021/10/02 05:59:21;;;;;;;6.25;1.40;;;23.10;51.00;;;;;;5062687;28;20400;-68
2021/10/02 06:01:46;;;;;;;8.70;1.20;;;23.10;51.10;;;;;;5062512;28;20851;-68
2021/10/02 06:04:12;;;;;;;4.20;1.00;;;23.10;51.10;;;;;;5062651;28;20975;-68
2021/10/02 06:06:38;;;;;;;2.80;0.90;;;23.10;51.00;;;;;;5062840;28;20717;-67
2021/10/02 06:09:03;;;;;;;2.97;1.00;;;23.10;51.10;;;;;;5062150;28;20408;-68
2021/10/02 06:11:29;;;;;;;3.57;1.07;;;23.10;50.70;;;;;;5063051;28;20761;-69
2021/10/02 06:13:57;;;;;;;3.33;0.88;;;23.10;50.80;;;;;;5062209;28;20422;-67
2021/10/02 06:16:25;;;;;;;5.45;1.20;;;23.10;50.50;;;;;;5053273;28;20462;-69
2021/10/02 06:18:50;;;;;;;4.27;1.20;;;23.10;51.50;;;;;;5062403;28;20387;-67
2021/10/02 06:21:16;;;;;;;5.25;1.20;;;23.10;51.80;;;;;;5062505;28;20675;-69
2021/10/02 06:23:43;;;;;;;3.90;1.00;;;23.00;51.50;;;;;;5052272;28;20400;-68
2021/10/02 06:26:08;;;;;;;3.65;1.00;;;23.00;51.70;;;;;;5062664;28;20399;-68
2021/10/02 06:28:34;;;;;;;6.47;1.00;;;23.00;52.10;;;;;;5062574;28;20396;-66
2021/10/02 06:31:00;;;;;;;4.78;1.00;;;23.00;52.30;;;;;;5062449;28;20414;-65
2021/10/02 06:33:26;;;;;;;2.40;0.82;;;23.00;51.60;;;;;;5062243;28;20913;-65
2021/10/02 06:35:52;;;;;;;5.22;1.08;;;23.00;51.80;;;;;;5061950;28;20387;-65
2021/10/02 06:38:18;;;;;;;4.10;0.90;;;23.00;51.80;;;;;;5062127;28;20431;-65
2021/10/02 06:40:43;;;;;;;10.67;1.20;;;23.00;52.10;;;;;;5062345;28;20967;-65
2021/10/02 06:43:10;;;;;;;5.88;1.15;;;22.90;52.20;;;;;;5061824;28;20392;-66
2021/10/02 06:45:36;;;;;;;9.27;1.13;;;23.00;52.30;;;;;;5061809;28;20403;-66
2021/10/02 06:48:03;;;;;;;5.43;0.93;;;22.90;52.10;;;;;;5050534;28;20399;-65
2021/10/02 06:50:30;;;;;;;3.08;1.08;;;22.90;51.90;;;;;;5061903;28;20473;-66
2021/10/02 06:52:56;;;;;;;7.07;1.42;;;22.90;52.00;;;;;;5061980;28;20404;-65
2021/10/02 06:55:22;;;;;;;7.10;1.50;;;22.90;51.70;;;;;;5061473;28;20403;-65
2021/10/02 06:57:47;;;;;;;5.38;1.42;;;22.90;51.30;;;;;;5061376;28;20391;-65
2021/10/02 07:00:13;;;;;;;3.35;1.05;;;22.80;50.90;;;;;;5061670;28;20394;-65
2021/10/02 07:02:41;;;;;;;4.85;1.10;;;22.80;50.10;;;;;;5060720;28;20457;-65
2021/10/02 07:05:11;;;;;;;5.00;0.90;;;22.80;50.80;;;;;;5061220;28;20388;-65
2021/10/02 07:07:37;;;;;;;4.20;1.17;;;22.80;50.60;;;;;;5061587;28;20407;-66
2021/10/02 07:10:04;;;;;;;5.65;1.10;;;22.80;51.00;;;;;;5061260;28;20430;-65
2021/10/02 07:12:30;;;;;;;3.67;1.27;;;22.80;50.40;;;;;;5061382;28;20425;-66
2021/10/02 07:14:55;;;;;;;3.90;1.02;;;22.80;50.80;;;;;;5062147;28;20729;-66
2021/10/02 07:17:21;;;;;;;3.17;0.90;;;22.80;50.50;;;;;;5062828;28;20386;-65
2021/10/02 07:19:47;;;;;;;4.80;0.98;;;22.70;50.60;;;;;;5061014;28;20395;-66
2021/10/02 07:22:13;;;;;;;2.87;1.10;;;22.80;50.40;;;;;;5061457;28;20937;-65
2021/10/02 07:24:38;;;;;;;4.10;1.30;;;22.80;50.50;;;;;;5061650;28;20433;-66
2021/10/02 07:27:04;;;;;;;4.47;1.10;;;22.80;50.60;;;;;;5061691;28;20445;-67
2021/10/02 07:29:30;;;;;;;4.45;1.10;;;22.80;51.00;;;;;;5061814;28;20425;-66
2021/10/02 07:31:56;;;;;;;2.85;0.80;;;22.80;51.20;;;;;;5051178;28;20407;-67
2021/10/02 07:34:22;;;;;;;2.37;0.83;;;22.80;51.20;;;;;;5061527;28;20422;-67
2021/10/02 07:36:47;;;;;;;2.00;0.80;;;22.80;51.20;;;;;;5061779;28;20380;-66
2021/10/02 07:39:13;;;;;;;2.90;1.00;;;22.90;51.20;;;;;;5061476;28;20395;-66
2021/10/02 07:41:43;;;;;;;2.25;1.00;;;22.90;51.30;;;;;;5061557;28;20398;-66
2021/10/02 07:44:11;;;;;;;2.23;1.13;;;22.80;51.20;;;;;;5061447;28;20605;-65
2021/10/02 07:46:40;;;;;;;2.33;0.73;;;22.90;51.30;;;;;;5061616;28;20391;-66
2021/10/02 07:49:07;;;;;;;2.30;0.77;;;22.90;51.30;;;;;;5061521;28;20428;-65
2021/10/02 07:51:33;;;;;;;2.45;0.80;;;22.90;51.30;;;;;;5065316;28;20379;-66
2021/10/02 07:53:59;;;;;;;1.75;0.85;;;22.80;51.20;;;;;;5064720;28;20427;-66
2021/10/02 07:56:27;;;;;;;2.55;0.80;;;22.90;51.30;;;;;;5064922;28;20728;-66
2021/10/02 07:58:54;;;;;;;2.45;0.80;;;22.90;51.30;;;;;;5064907;28;20438;-67
2021/10/02 08:01:22;;;;;;;1.90;0.80;;;22.90;51.30;;;;;;5056007;28;21557;-65
2021/10/02 08:03:51;;;;;;;2.00;0.70;;;22.90;51.20;;;;;;5065066;28;20626;-66
2021/10/02 08:06:16;;;;;;;2.05;0.80;;;22.90;51.20;;;;;;5065074;28;20406;-66
2021/10/02 08:08:42;;;;;;;1.97;0.90;;;22.90;51.20;;;;;;5065058;28;20419;-66
2021/10/02 08:11:08;;;;;;;2.47;0.75;;;23.00;51.20;;;;;;5063650;28;20485;-66
2021/10/02 08:13:34;;;;;;;2.30;0.82;;;23.00;51.20;;;;;;5046774;28;20423;-66
2021/10/02 08:16:01;;;;;;;1.63;0.68;;;23.00;51.00;;;;;;5064616;28;20384;-65
2021/10/02 08:18:34;;;;;;;3.50;0.70;;;23.00;50.80;;;;;;5055490;28;20375;-66
2021/10/02 08:21:00;;;;;;;2.47;0.90;;;23.00;50.50;;;;;;5064857;28;20387;-67
2021/10/02 08:23:26;;;;;;;2.08;1.00;;;23.00;50.70;;;;;;5064951;28;20398;-67
2021/10/02 08:25:56;;;;;;;1.70;0.88;;;23.00;50.80;;;;;;5064150;28;20418;-66
2021/10/02 08:28:21;;;;;;;2.05;0.80;;;23.00;50.90;;;;;;5064836;28;21476;-66
2021/10/02 08:30:49;;;;;;;2.20;0.70;;;23.10;50.80;;;;;;5064566;28;20380;-66
2021/10/02 08:33:16;;;;;;;1.42;0.70;;;23.00;50.70;;;;;;5064443;28;20519;-66
2021/10/02 08:35:42;;;;;;;1.60;0.60;;;23.10;50.80;;;;;;5064361;28;20434;-65
2021/10/02 08:38:08;;;;;;;1.02;0.40;;;23.10;50.90;;;;;;5064110;28;20993;-66
2021/10/02 08:40:34;;;;;;;1.17;0.70;;;23.10;50.80;;;;;;5064756;28;20392;-65
2021/10/02 08:43:03;;;;;;;2.73;0.90;;;23.10;50.50;;;;;;5064039;28;20582;-66
2021/10/02 08:45:31;;;;;;;2.30;0.98;;;23.10;50.30;;;;;;5065101;28;20453;-66
2021/10/02 08:47:59;;;;;;;1.30;0.90;;;23.10;50.20;;;;;;5064531;28;20433;-66
2021/10/02 08:50:27;;;;;;;1.60;0.95;;;23.10;50.40;;;;;;5065070;28;20494;-66
2021/10/02 08:52:55;;;;;;;2.70;0.90;;;23.10;50.30;;;;;;5064920;28;20449;-66
2021/10/02 08:55:23;;;;;;;2.20;1.00;;;23.20;49.90;;;;;;5064897;28;20431;-66
2021/10/02 08:57:51;;;;;;;2.20;0.82;;;23.20;49.70;;;;;;5062893;28;20477;-66
2021/10/02 09:00:21;;;;;;;1.58;0.88;;;23.20;49.40;;;;;;5063610;28;20395;-66
2021/10/02 09:02:48;;;;;;;2.08;1.05;;;23.20;49.50;;;;;;5063563;28;20383;-66
2021/10/02 09:05:15;;;;;;;1.88;0.80;;;23.30;49.40;;;;;;5064501;28;20391;-66
2021/10/02 09:07:42;;;;;;;3.05;0.93;;;23.30;49.40;;;;;;5064388;28;20747;-66
2021/10/02 09:10:11;;;;;;;2.65;1.08;;;23.40;49.30;;;;;;5062328;28;20450;-66
2021/10/02 09:12:41;;;;;;;2.35;0.98;;;23.40;49.30;;;;;;5064208;28;21132;-65
2021/10/02 09:15:08;;;;;;;2.22;0.90;;;23.40;49.10;;;;;;5064361;28;20894;-66
2021/10/02 09:17:34;;;;;;;2.67;1.00;;;23.40;49.30;;;;;;5063484;28;20425;-66
2021/10/02 09:20:00;;;;;;;4.85;1.15;;;23.40;49.20;;;;;;5063689;28;20442;-66
2021/10/02 09:22:26;;;;;;;3.50;1.00;;;23.40;49.30;;;;;;5064414;28;20483;-66
2021/10/02 09:24:53;;;;;;;2.13;0.90;;;23.40;49.20;;;;;;5064128;28;20934;-66
2021/10/02 09:27:25;;;;;;;2.50;1.02;;;23.40;49.10;;;;;;5063873;28;20411;-66
2021/10/02 09:29:54;;;;;;;4.03;1.02;;;23.40;49.00;;;;;;5063360;28;20380;-66
2021/10/02 09:32:25;;;;;;;2.05;1.10;;;23.40;48.70;;;;;;5063960;28;20403;-66
2021/10/02 09:34:54;;;;;;;1.50;0.93;;;23.40;48.90;;;;;;5063690;28;20400;-66
2021/10/02 09:37:27;;;;;;;2.30;0.90;;;23.40;48.70;;;;;;5063995;28;20411;-65
2021/10/02 09:40:08;;;;;;;2.20;1.00;;;23.50;48.80;;;;;;5061827;28;20434;-65
2021/10/02 09:42:37;;;;;;;2.53;0.90;;;23.50;48.60;;;;;;5064052;28;20493;-65
2021/10/02 09:45:09;;;;;;;1.83;1.00;;;23.50;48.30;;;;;;5064123;28;20395;-65
2021/10/02 09:47:37;;;;;;;2.28;0.93;;;23.60;48.30;;;;;;5063824;28;20388;-65
2021/10/02 09:50:11;;;;;;;4.38;1.45;;;23.70;48.20;;;;;;5063742;28;20401;-66
2021/10/02 09:52:43;;;;;;;5.43;1.20;;;23.70;48.20;;;;;;5063263;28;20684;-66
2021/10/02 09:55:22;;;;;;;3.47;1.30;;;23.50;47.90;;;;;;5063488;28;20395;-66
2021/10/02 09:57:54;;;;;;;2.78;1.10;;;23.50;48.70;;;;;;5063406;28;20399;-66
2021/10/02 10:00:24;;;;;;;2.88;1.00;;;23.40;48.70;;;;;;5062877;28;20396;-66
2021/10/02 10:02:51;;;;;;;2.70;1.20;;;23.40;48.80;;;;;;5062009;28;20484;-66
2021/10/02 10:05:18;;;;;;;2.53;1.15;;;23.40;48.90;;;;;;5062603;28;20396;-66
2021/10/02 10:07:56;;;;;;;2.72;1.20;;;23.30;48.70;;;;;;5062073;28;20399;-66
2021/10/02 10:10:23;;;;;;;3.10;1.10;;;23.40;48.70;;;;;;5052241;28;20403;-66
2021/10/02 10:12:49;;;;;;;2.58;1.20;;;23.30;49.00;;;;;;5061538;28;20412;-65
2021/10/02 10:15:26;;;;;;;2.05;1.05;;;23.30;48.90;;;;;;5062178;28;20763;-66
2021/10/02 10:17:52;;;;;;;3.72;1.10;;;23.30;48.90;;;;;;5062843;28;20486;-66
2021/10/02 10:20:19;;;;;;;1.60;1.00;;;23.30;49.10;;;;;;5062958;28;20407;-66
2021/10/02 10:22:57;;;;;;;4.32;1.15;;;23.30;49.20;;;;;;5062738;28;20394;-66
2021/10/02 10:25:23;;;;;;;2.50;1.10;;;23.30;49.20;;;;;;5061592;28;20392;-66
2021/10/02 10:27:49;;;;;;;1.90;1.08;;;23.30;49.40;;;;;;5062704;28;20457;-67
2021/10/02 10:30:23;;;;;;;2.30;1.17;;;23.30;49.50;;;;;;5061811;28;20467;-66
2021/10/02 10:33:01;;;;;;;3.30;1.05;;;23.30;49.60;;;;;;5060849;28;20411;-67
2021/10/02 10:35:33;;;;;;;2.58;0.88;;;23.30;49.70;;;;;;5060803;28;20384;-67
2021/10/02 10:37:59;;;;;;;1.83;1.10;;;23.20;49.70;;;;;;5060364;28;20391;-67
2021/10/02 10:40:25;;;;;;;1.70;0.98;;;23.20;49.80;;;;;;5060271;28;20392;-67
2021/10/02 10:42:53;;;;;;;2.08;1.00;;;23.30;49.80;;;;;;5059026;28;20445;-67
2021/10/02 10:45:20;;;;;;;2.17;1.10;;;23.30;49.90;;;;;;5058862;28;20422;-67
2021/10/02 10:47:47;;;;;;;1.77;0.90;;;23.30;49.80;;;;;;5058870;28;20383;-67
2021/10/02 10:50:13;;;;;;;1.85;1.00;;;23.20;49.90;;;;;;5060406;28;20400;-67
2021/10/02 10:52:41;;;;;;;1.88;1.10;;;23.30;49.80;;;;;;5058659;28;20395;-67
2021/10/02 10:55:16;;;;;;;1.70;0.95;;;23.30;49.90;;;;;;5060582;28;20391;-67
2021/10/02 10:57:43;;;;;;;2.25;1.08;;;23.30;49.60;;;;;;5060680;28;20392;-67
2021/10/02 11:00:16;;;;;;;1.70;0.73;;;23.30;49.80;;;;;;5059890;28;20404;-67
2021/10/02 11:03:03;;;;;;;2.13;1.00;;;23.30;49.90;;;;;;5060761;28;20388;-67
2021/10/02 11:05:35;;;;;;;2.03;1.10;;;23.30;50.00;;;;;;5060228;28;20737;-67
2021/10/02 11:08:09;;;;;;;1.58;1.08;;;23.20;50.00;;;;;;5058221;28;20514;-67
2021/10/02 11:10:41;;;;;;;2.38;1.10;;;23.30;50.10;;;;;;5061708;28;20406;-67
2021/10/02 11:13:07;;;;;;;2.07;1.00;;;23.30;50.10;;;;;;5061802;28;20970;-67
2021/10/02 11:15:33;;;;;;;2.20;1.00;;;23.30;50.10;;;;;;5061260;28;20803;-67
2021/10/02 11:17:59;;;;;;;1.70;1.00;;;23.30;50.10;;;;;;5060786;28;20384;-67
2021/10/02 11:20:34;;;;;;;2.17;1.10;;;23.30;50.10;;;;;;5061801;28;20475;-67
2021/10/02 11:23:41;;;;;;;1.80;1.00;;;23.30;50.10;;;;;;5061267;28;20713;-67
2021/10/02 11:26:22;;;;;;;2.03;1.00;;;23.30;50.20;;;;;;5058383;28;20410;-67
2021/10/02 11:28:57;;;;;;;1.67;1.10;;;23.30;50.30;;;;;;5063047;28;20398;-67
2021/10/02 11:31:25;;;;;;;1.77;0.90;;;23.30;50.30;;;;;;5066334;28;20392;-67
2021/10/02 11:33:52;;;;;;;1.70;0.90;;;23.30;50.00;;;;;;5064425;28;20687;-67
2021/10/02 11:36:32;;;;;;;1.60;1.00;;;23.30;50.20;;;;;;5065089;28;20398;-67
2021/10/02 11:39:25;;;;;;;1.40;1.00;;;23.30;50.10;;;;;;5066281;28;20393;-67
2021/10/02 11:41:57;;;;;;;1.70;1.10;;;23.30;50.10;;;;;;5065644;28;20871;-67
2021/10/02 11:44:32;;;;;;;1.50;1.00;;;23.30;50.10;;;;;;5065456;28;20468;-66
2021/10/02 11:47:34;;;;;;;2.00;1.00;;;23.30;50.10;;;;;;5059118;28;20932;-66
2021/10/02 11:50:11;;;;;;;1.63;1.03;;;23.30;50.10;;;;;;5065166;28;20383;-67
2021/10/02 11:52:44;;;;;;;1.58;1.00;;;23.30;50.20;;;;;;5065670;28;20468;-67
2021/10/02 11:55:35;;;;;;;1.40;0.90;;;23.30;50.30;;;;;;5065984;28;20755;-66
2021/10/02 11:58:06;;;;;;;1.52;0.85;;;23.40;50.30;;;;;;5065245;28;20396;-66
2021/10/02 12:00:34;;;;;;;1.60;1.10;;;23.30;50.30;;;;;;5065815;28;20439;-66
2021/10/02 12:03:02;;;;;;;1.65;1.10;;;23.40;50.30;;;;;;5065549;28;20391;-67
2021/10/02 12:05:27;;;;;;;1.50;1.00;;;23.40;50.30;;;;;;5065297;28;20380;-66
2021/10/02 12:07:54;;;;;;;1.50;1.10;;;23.40;50.20;;;;;;5064146;28;20415;-67
2021/10/02 12:10:20;;;;;;;1.50;1.00;;;23.40;50.30;;;;;;5065306;28;20396;-66
2021/10/02 12:12:45;;;;;;;1.60;1.00;;;23.40;50.30;;;;;;5064271;28;20422;-67
2021/10/02 12:15:11;;;;;;;2.60;1.02;;;23.40;50.30;;;;;;5065556;28;20748;-67
2021/10/02 12:17:57;;;;;;;1.60;1.00;;;23.40;50.30;;;;;;5063921;28;20403;-66
2021/10/02 12:20:40;;;;;;;1.42;1.02;;;23.40;50.30;;;;;;5064988;28;20392;-67
2021/10/02 12:23:07;;;;;;;2.20;1.08;;;23.40;50.30;;;;;;5064969;28;20405;-67
2021/10/02 12:25:33;;;;;;;1.50;0.80;;;23.40;50.90;;;;;;5064271;28;20399;-66
2021/10/02 12:27:59;;;;;;;1.90;1.08;;;23.50;50.30;;;;;;5064698;28;20393;-67
2021/10/02 12:30:25;;;;;;;2.08;0.80;;;23.50;50.30;;;;;;5065373;28;20751;-66
2021/10/02 12:33:01;;;;;;;1.55;1.00;;;23.50;50.30;;;;;;5065049;28;20451;-66
2021/10/02 12:35:28;;;;;;;1.30;1.00;;;23.50;50.20;;;;;;5061358;28;20397;-66
2021/10/02 12:37:56;;;;;;;1.67;0.93;;;23.50;50.30;;;;;;5063512;28;20880;-67
2021/10/02 12:40:24;;;;;;;1.42;0.90;;;23.50;50.30;;;;;;5064908;28;20384;-66
2021/10/02 12:42:56;;;;;;;1.48;1.00;;;23.50;50.20;;;;;;5064920;28;20388;-67
2021/10/02 12:45:37;;;;;;;1.42;0.90;;;23.50;50.10;;;;;;5065078;28;20490;-66
2021/10/02 12:48:04;;;;;;;1.60;1.10;;;23.50;50.30;;;;;;5064800;28;20380;-67
2021/10/02 12:50:36;;;;;;;1.40;0.80;;;23.60;50.20;;;;;;5065411;28;20384;-66
2021/10/02 12:53:02;;;;;;;1.60;1.00;;;23.60;50.30;;;;;;5064553;28;20395;-67
2021/10/02 12:55:28;;;;;;;1.70;0.93;;;23.60;50.20;;;;;;5064940;28;20511;-67
2021/10/02 12:57:54;;;;;;;1.77;1.10;;;23.60;50.30;;;;;;5064964;28;21085;-67
2021/10/02 13:00:27;;;;;;;1.40;0.98;;;23.60;50.30;;;;;;5064392;28;20388;-67
2021/10/02 13:02:55;;;;;;;1.20;0.80;;;23.60;50.30;;;;;;5064913;28;20378;-67
2021/10/02 13:05:25;;;;;;;1.50;0.90;;;23.60;50.30;;;;;;5065162;28;20412;-66
2021/10/02 13:07:54;;;;;;;2.08;1.08;;;23.60;50.30;;;;;;5064296;28;20417;-66
2021/10/02 13:10:35;;;;;;;1.67;1.05;;;23.60;50.40;;;;;;5064041;28;20425;-67
2021/10/02 13:13:20;;;;;;;1.60;1.00;;;23.60;50.30;;;;;;5064588;28;20404;-67
2021/10/02 13:15:51;;;;;;;1.50;0.90;;;23.60;50.20;;;;;;5096277;27;20407;-66
2021/10/02 13:18:23;;;;;;;1.60;0.90;;;23.60;50.10;;;;;;5063477;28;20392;-67
2021/10/02 13:20:55;;;;;;;1.50;1.00;;;23.60;50.20;;;;;;5064123;28;20402;-67
2021/10/02 13:23:34;;;;;;;1.60;1.00;;;23.60;50.10;;;;;;5064337;28;20392;-66
2021/10/02 13:26:05;;;;;;;1.27;0.88;;;23.60;50.10;;;;;;5063136;28;20520;-66
2021/10/02 13:28:34;;;;;;;1.40;1.10;;;23.60;50.10;;;;;;5059735;28;20391;-67
2021/10/02 13:31:17;;;;;;;1.58;1.10;;;23.70;50.20;;;;;;5062356;28;20437;-67
2021/10/02 13:33:48;;;;;;;1.48;1.10;;;23.70;50.00;;;;;;5058802;28;20446;-66
2021/10/02 13:36:30;;;;;;;1.45;0.98;;;23.70;50.00;;;;;;5058153;28;20721;-66
2021/10/02 13:39:17;;;;;;;1.42;0.95;;;23.70;50.10;;;;;;5059132;28;20463;-66
2021/10/02 13:41:53;;;;;;;1.23;0.90;;;23.70;50.00;;;;;;5062038;28;20408;-66
2021/10/02 13:44:31;;;;;;;1.30;0.90;;;23.70;50.00;;;;;;5062071;28;20391;-66
2021/10/02 13:47:00;;;;;;;1.50;1.00;;;23.70;50.00;;;;;;5062300;28;20744;-66
2021/10/02 13:49:27;;;;;;;1.73;1.02;;;23.70;50.10;;;;;;5062787;28;20442;-66